createdAt,value
2023-12-08T00:00:49.726Z,10.70
2023-12-08T00:03:16.747Z,13.40
2023-12-08T00:05:43.358Z,15.50
2023-12-08T00:08:10.294Z,10.05
2023-12-08T00:10:37.026Z,12.65
2023-12-08T00:13:03.677Z,12.43
2023-12-08T00:15:30.351Z,9.25
2023-12-08T00:17:57.126Z,10.40
2023-12-08T00:20:24.935Z,13.98
2023-12-08T00:22:51.635Z,11.00
2023-12-08T00:25:18.350Z,9.90
2023-12-08T00:27:44.864Z,11.38
2023-12-08T00:30:13.093Z,9.07
2023-12-08T00:32:39.850Z,12.35
2023-12-08T00:35:07.211Z,9.50
2023-12-08T00:37:34.265Z,8.95
2023-12-08T00:40:01.178Z,8.98
2023-12-08T00:42:28.967Z,9.93
2023-12-08T00:44:55.586Z,10.20
2023-12-08T00:47:22.267Z,10.43
2023-12-08T00:49:48.791Z,10.30
2023-12-08T00:52:15.613Z,13.82
2023-12-08T00:54:42.235Z,12.60
2023-12-08T00:57:09.529Z,10.65
2023-12-08T00:59:36.295Z,11.95
2023-12-08T01:02:03.010Z,9.45
2023-12-08T01:04:29.688Z,13.82
2023-12-08T01:06:56.274Z,15.40
2023-12-08T01:09:23.016Z,10.38
2023-12-08T01:11:49.925Z,12.30
2023-12-08T01:14:16.668Z,9.40
2023-12-08T01:16:43.698Z,9.25
2023-12-08T01:19:12.190Z,9.95
2023-12-08T01:21:39.991Z,10.35
2023-12-08T01:24:07.770Z,9.57
2023-12-08T01:26:34.909Z,12.95
2023-12-08T01:29:01.640Z,8.82
2023-12-08T01:31:28.204Z,10.43
2023-12-08T01:33:54.983Z,10.48
2023-12-08T01:36:39.684Z,10.43
2023-12-08T01:39:08.311Z,10.45
2023-12-08T01:41:35.059Z,9.30
2023-12-08T01:44:01.583Z,11.00
2023-12-08T01:46:29.529Z,10.85
2023-12-08T01:48:56.566Z,10.25
2023-12-08T01:51:23.510Z,11.10
2023-12-08T01:53:51.468Z,14.68
2023-12-08T01:56:18.190Z,12.43
2023-12-08T01:58:45.472Z,12.80
2023-12-08T02:01:12.136Z,10.68
2023-12-08T02:03:40.426Z,10.65
2023-12-08T02:06:08.081Z,10.65
2023-12-08T02:08:35.131Z,9.18
2023-12-08T02:11:01.895Z,10.13
2023-12-08T02:13:28.628Z,11.13
2023-12-08T02:16:00.301Z,9.68
2023-12-08T02:18:27.255Z,9.90
2023-12-08T02:20:54.210Z,10.63
2023-12-08T02:23:21.301Z,11.00
2023-12-08T02:25:47.891Z,10.40
2023-12-08T02:28:14.652Z,10.95
2023-12-08T02:30:41.337Z,7.60
2023-12-08T02:33:20.053Z,11.32
2023-12-08T02:35:47.054Z,10.63
2023-12-08T02:38:18.367Z,8.98
2023-12-08T02:40:45.101Z,9.25
2023-12-08T02:43:11.990Z,8.00
2023-12-08T02:45:38.763Z,10.10
2023-12-08T02:48:05.709Z,9.95
2023-12-08T02:50:32.474Z,10.88
2023-12-08T02:52:59.137Z,13.25
2023-12-08T02:55:25.672Z,16.02
2023-12-08T02:57:52.398Z,14.45
2023-12-08T03:00:19.337Z,13.18
2023-12-08T03:02:45.996Z,14.55
2023-12-08T03:05:12.759Z,13.95
2023-12-08T03:07:39.511Z,12.18
2023-12-08T03:10:06.596Z,13.38
2023-12-08T03:12:33.563Z,15.02
2023-12-08T03:15:00.526Z,16.20
2023-12-08T03:17:28.285Z,13.65
2023-12-08T03:19:55.067Z,14.40
2023-12-08T03:22:21.812Z,12.85
2023-12-08T03:24:48.627Z,13.70
2023-12-08T03:27:15.405Z,16.60
2023-12-08T03:29:42.463Z,14.23
2023-12-08T03:32:09.055Z,14.55
2023-12-08T03:34:35.896Z,12.95
2023-12-08T03:37:02.771Z,12.70
2023-12-08T03:39:29.248Z,11.82
2023-12-08T03:41:55.983Z,20.27
2023-12-08T03:44:22.759Z,14.35
2023-12-08T03:46:49.386Z,12.88
2023-12-08T03:49:16.115Z,12.07
2023-12-08T03:51:43.033Z,11.05
2023-12-08T03:54:09.554Z,10.23
2023-12-08T03:56:36.211Z,12.77
2023-12-08T03:59:02.861Z,9.10
2023-12-08T04:01:29.371Z,11.05
2023-12-08T04:03:56.074Z,11.32
2023-12-08T04:06:22.979Z,13.10
2023-12-08T04:08:49.670Z,10.75
2023-12-08T04:11:16.226Z,10.82
2023-12-08T04:13:42.828Z,11.40
2023-12-08T04:16:09.605Z,11.93
2023-12-08T04:18:37.160Z,10.75
2023-12-08T04:21:03.902Z,10.20
2023-12-08T04:23:30.460Z,13.93
2023-12-08T04:25:58.863Z,13.13
2023-12-08T04:28:26.338Z,11.70
2023-12-08T04:30:53.028Z,11.30
2023-12-08T04:33:19.795Z,11.05
2023-12-08T04:35:46.703Z,12.00
2023-12-08T04:38:13.310Z,9.93
2023-12-08T04:40:39.938Z,10.88
2023-12-08T04:43:06.603Z,12.20
2023-12-08T04:45:33.089Z,15.15
2023-12-08T04:47:59.949Z,14.30
2023-12-08T04:50:27.277Z,15.15
2023-12-08T04:52:54.066Z,13.30
2023-12-08T04:55:20.704Z,14.45
2023-12-08T04:57:47.587Z,13.73
2023-12-08T05:00:14.360Z,11.05
2023-12-08T05:02:41.002Z,16.40
2023-12-08T05:05:07.901Z,16.38
2023-12-08T05:07:34.516Z,20.48
2023-12-08T05:10:01.549Z,21.67
2023-12-08T05:12:28.377Z,22.15
2023-12-08T05:14:55.285Z,21.60
2023-12-08T05:17:22.111Z,22.65
2023-12-08T05:19:48.887Z,23.67
2023-12-08T05:22:15.670Z,21.75
2023-12-08T05:24:42.140Z,22.33
2023-12-08T05:27:09.426Z,25.33
2023-12-08T05:29:36.358Z,23.73
2023-12-08T05:32:03.296Z,21.25
2023-12-08T05:34:30.176Z,22.55
2023-12-08T05:36:56.962Z,29.10
2023-12-08T05:39:23.655Z,21.23
2023-12-08T05:41:50.134Z,26.48
2023-12-08T05:44:16.880Z,21.73
2023-12-08T05:46:43.999Z,22.42
2023-12-08T05:49:10.931Z,21.27
2023-12-08T05:51:37.625Z,24.50
2023-12-08T05:54:04.562Z,22.27
2023-12-08T05:56:31.540Z,21.40
2023-12-08T05:58:58.302Z,24.17
2023-12-08T06:01:24.758Z,23.65
2023-12-08T06:03:51.373Z,22.60
2023-12-08T06:06:18.263Z,22.20
2023-12-08T06:08:44.883Z,22.65
2023-12-08T06:11:11.816Z,22.33
2023-12-08T06:13:38.401Z,21.73
2023-12-08T06:16:05.780Z,22.60
2023-12-08T06:18:32.542Z,18.02
2023-12-08T06:20:59.462Z,15.88
2023-12-08T06:23:26.708Z,19.83
2023-12-08T06:25:53.506Z,16.25
2023-12-08T06:28:20.080Z,19.67
2023-12-08T06:30:47.006Z,17.73
2023-12-08T06:33:13.698Z,21.08
2023-12-08T06:35:40.518Z,18.42
2023-12-08T06:38:07.060Z,17.02
2023-12-08T06:40:33.558Z,17.20
2023-12-08T06:43:00.122Z,18.48
2023-12-08T06:45:26.595Z,17.17
2023-12-08T06:47:53.449Z,15.13
2023-12-08T06:50:20.441Z,15.73
2023-12-08T06:52:47.936Z,19.08
2023-12-08T06:55:14.584Z,16.17
2023-12-08T06:57:41.108Z,17.70
2023-12-08T07:00:11.369Z,16.05
2023-12-08T07:02:38.378Z,16.15
2023-12-08T07:05:05.547Z,17.88
2023-12-08T07:07:32.247Z,18.88
2023-12-08T07:09:58.688Z,17.73
2023-12-08T07:12:25.251Z,16.45
2023-12-08T07:14:52.038Z,18.60
2023-12-08T07:17:18.672Z,19.20
2023-12-08T07:19:45.425Z,17.23
2023-12-08T07:22:12.097Z,18.10
2023-12-08T07:24:39.939Z,15.65
2023-12-08T07:27:07.303Z,15.88
2023-12-08T07:29:33.915Z,16.38
2023-12-08T07:32:00.788Z,14.38
2023-12-08T07:34:27.378Z,16.58
2023-12-08T07:36:53.952Z,15.07
2023-12-08T07:39:20.839Z,15.68
2023-12-08T07:41:47.393Z,16.67
2023-12-08T07:44:14.694Z,18.73
2023-12-08T07:46:41.544Z,15.50
2023-12-08T07:49:08.196Z,16.00
2023-12-08T07:51:34.838Z,13.88
2023-12-08T07:54:03.161Z,14.10
2023-12-08T07:56:30.230Z,19.67
2023-12-08T07:58:56.729Z,15.18
2023-12-08T08:01:23.267Z,15.80
2023-12-08T08:03:49.794Z,15.93
2023-12-08T08:06:16.627Z,13.20
2023-12-08T08:08:43.280Z,16.80
2023-12-08T08:11:10.423Z,19.83
2023-12-08T08:13:36.902Z,14.60
2023-12-08T08:16:03.563Z,14.70
2023-12-08T08:18:30.524Z,20.77
2023-12-08T08:20:57.398Z,17.60
2023-12-08T08:23:24.189Z,18.77
2023-12-08T08:25:50.826Z,18.98
2023-12-08T08:28:17.442Z,22.52
2023-12-08T08:30:44.510Z,18.00
2023-12-08T08:33:11.406Z,19.65
2023-12-08T08:35:38.849Z,15.25
2023-12-08T08:38:05.529Z,19.52
2023-12-08T08:40:33.388Z,18.92
2023-12-08T08:42:59.892Z,18.45
2023-12-08T08:45:27.109Z,13.93
2023-12-08T08:47:54.292Z,13.40
2023-12-08T08:50:22.305Z,15.50
2023-12-08T08:52:49.211Z,14.10
2023-12-08T08:55:15.918Z,13.63
2023-12-08T08:57:42.502Z,12.45
2023-12-08T09:00:14.000Z,13.18
2023-12-08T09:02:42.416Z,12.68
2023-12-08T09:05:09.243Z,18.75
2023-12-08T09:07:37.325Z,13.77
2023-12-08T09:10:04.690Z,13.73
2023-12-08T09:12:31.429Z,15.40
2023-12-08T09:14:58.399Z,13.68
2023-12-08T09:17:24.996Z,14.57
2023-12-08T09:19:52.249Z,13.38
2023-12-08T09:22:19.048Z,17.77
2023-12-08T09:24:45.658Z,14.70
2023-12-08T09:27:12.367Z,13.27
2023-12-08T09:29:39.139Z,15.45
2023-12-08T09:32:06.446Z,12.00
2023-12-08T09:34:34.182Z,13.45
2023-12-08T09:37:25.952Z,13.32
2023-12-08T09:39:47.602Z,16.17
2023-12-08T09:42:33.280Z,13.93
2023-12-08T09:45:01.987Z,13.88
2023-12-08T09:47:30.784Z,13.20
2023-12-08T09:50:00.705Z,12.23
2023-12-08T09:52:27.704Z,15.10
2023-12-08T09:54:54.913Z,22.35
2023-12-08T09:57:22.322Z,14.73
2023-12-08T09:59:51.638Z,17.05
2023-12-08T10:02:19.754Z,17.52
2023-12-08T10:04:47.147Z,14.88
2023-12-08T10:07:14.412Z,16.13
2023-12-08T10:09:42.397Z,14.90
2023-12-08T10:12:09.097Z,16.60
2023-12-08T10:14:35.685Z,16.02
2023-12-08T10:17:03.582Z,17.85
2023-12-08T10:19:30.179Z,14.20
2023-12-08T10:22:03.416Z,14.25
2023-12-08T10:24:31.683Z,14.02
2023-12-08T10:27:00.328Z,18.10
2023-12-08T10:29:34.457Z,22.10
2023-12-08T10:32:02.058Z,16.85
2023-12-08T10:34:29.349Z,21.20
2023-12-08T10:36:56.367Z,18.73
2023-12-08T10:39:24.098Z,21.35
2023-12-08T10:41:52.254Z,21.10
2023-12-08T10:44:21.570Z,22.83
2023-12-08T10:46:49.538Z,23.10
2023-12-08T10:49:20.551Z,20.58
2023-12-08T10:51:48.574Z,17.67
2023-12-08T10:54:17.535Z,19.77
2023-12-08T10:56:46.211Z,19.38
2023-12-08T10:59:19.174Z,17.60
2023-12-08T11:01:47.567Z,20.90
2023-12-08T11:04:22.586Z,21.00
2023-12-08T11:07:04.161Z,21.20
2023-12-08T11:09:36.468Z,16.13
2023-12-08T11:12:07.834Z,21.25
2023-12-08T11:14:49.547Z,17.30
2023-12-08T11:17:43.157Z,16.90
2023-12-08T11:20:11.093Z,18.05
2023-12-08T11:22:38.116Z,19.55
2023-12-08T11:25:11.001Z,16.90
2023-12-08T11:27:49.053Z,21.15
2023-12-08T11:30:44.696Z,23.05
2023-12-08T11:33:27.904Z,16.55
2023-12-08T11:36:06.186Z,17.25
2023-12-08T11:38:32.868Z,19.70
2023-12-08T11:40:59.547Z,19.95
2023-12-08T11:43:27.446Z,16.70
2023-12-08T11:45:54.008Z,17.65
2023-12-08T11:48:23.587Z,16.15
2023-12-08T11:50:50.801Z,14.68
2023-12-08T11:53:18.288Z,21.05
2023-12-08T11:55:45.309Z,17.17
2023-12-08T11:58:12.912Z,18.80
2023-12-08T12:00:40.470Z,18.85
2023-12-08T12:03:09.245Z,16.20
2023-12-08T12:05:39.955Z,17.25
2023-12-08T12:08:08.748Z,17.13
2023-12-08T12:10:35.791Z,17.17
2023-12-08T12:13:06.591Z,17.58
2023-12-08T12:15:36.527Z,19.38
2023-12-08T12:18:04.083Z,20.40
2023-12-08T12:20:40.088Z,19.10
2023-12-08T12:23:07.146Z,19.27
2023-12-08T12:25:34.145Z,16.90
2023-12-08T12:28:00.760Z,18.73
2023-12-08T12:30:27.346Z,20.08
2023-12-08T12:32:54.344Z,18.13
2023-12-08T12:35:21.176Z,24.13
2023-12-08T12:37:47.793Z,24.67
2023-12-08T12:40:14.325Z,24.65
2023-12-08T12:42:43.157Z,23.02
2023-12-08T12:45:11.283Z,22.48
2023-12-08T12:47:38.393Z,21.33
2023-12-08T12:50:08.612Z,20.45
2023-12-08T12:52:41.377Z,25.85
2023-12-08T12:55:28.437Z,20.67
2023-12-08T12:57:55.018Z,21.95
2023-12-08T13:00:40.209Z,18.98
2023-12-08T13:03:11.658Z,19.77
2023-12-08T13:05:45.529Z,20.92
2023-12-08T13:08:14.264Z,20.40
2023-12-08T13:10:42.747Z,20.63
2023-12-08T13:13:09.174Z,22.45
2023-12-08T13:15:37.052Z,22.38
2023-12-08T13:18:04.838Z,23.42
2023-12-08T13:20:34.494Z,25.08
2023-12-08T13:23:02.556Z,22.52
2023-12-08T13:25:29.018Z,22.90
2023-12-08T13:27:55.513Z,17.10
2023-12-08T13:30:22.411Z,16.98
2023-12-08T13:32:49.113Z,20.55
2023-12-08T13:35:15.707Z,16.67
2023-12-08T13:37:43.170Z,20.25
2023-12-08T13:40:13.083Z,16.27
2023-12-08T13:42:40.412Z,20.88
2023-12-08T13:45:08.374Z,18.77
2023-12-08T13:47:34.978Z,20.55
2023-12-08T13:50:01.485Z,17.95
2023-12-08T13:52:28.326Z,17.98
2023-12-08T13:54:54.880Z,17.40
2023-12-08T13:57:21.359Z,17.30
2023-12-08T13:59:47.881Z,16.38
2023-12-08T14:02:14.330Z,16.58
2023-12-08T14:04:40.979Z,21.27
2023-12-08T14:07:07.558Z,21.17
2023-12-08T14:09:34.063Z,18.40
2023-12-08T14:12:01.566Z,16.23
2023-12-08T14:14:28.112Z,14.50
2023-12-08T14:16:54.629Z,20.90
2023-12-08T14:19:21.341Z,19.00
2023-12-08T14:21:48.466Z,20.83
2023-12-08T14:24:15.201Z,17.35
2023-12-08T14:26:42.369Z,17.17
2023-12-08T14:29:08.959Z,14.55
2023-12-08T14:31:35.377Z,18.67
2023-12-08T14:34:02.017Z,19.60
2023-12-08T14:36:28.836Z,16.20
2023-12-08T14:38:55.397Z,17.60
2023-12-08T14:41:21.959Z,17.42
2023-12-08T14:43:48.603Z,17.42
2023-12-08T14:46:19.805Z,16.63
2023-12-08T14:48:46.547Z,16.83
2023-12-08T14:51:23.888Z,14.65
2023-12-08T14:53:50.924Z,20.50
2023-12-08T14:56:18.954Z,15.75
2023-12-08T14:58:45.591Z,17.02
2023-12-08T15:01:16.916Z,17.92
2023-12-08T15:03:45.779Z,17.35
2023-12-08T15:06:13.723Z,19.20
2023-12-08T15:08:41.422Z,19.33
2023-12-08T15:11:08.385Z,18.08
2023-12-08T15:13:35.153Z,16.83
2023-12-08T15:16:01.877Z,16.63
2023-12-08T15:18:28.561Z,17.48
2023-12-08T15:20:55.796Z,21.42
2023-12-08T15:23:24.521Z,20.55
2023-12-08T15:25:51.160Z,20.08
2023-12-08T15:28:17.614Z,16.80
2023-12-08T15:30:44.081Z,17.90
2023-12-08T15:33:10.951Z,20.58
2023-12-08T15:35:37.570Z,17.88
2023-12-08T15:38:06.459Z,19.80
2023-12-08T15:40:35.240Z,23.40
2023-12-08T15:43:01.707Z,22.40
2023-12-08T15:45:28.186Z,25.90
2023-12-08T15:47:54.936Z,23.35
2023-12-08T15:50:21.695Z,26.40
2023-12-08T15:52:48.261Z,25.55
2023-12-08T15:55:14.840Z,24.45
2023-12-08T15:57:41.509Z,21.55
2023-12-08T16:00:08.643Z,27.08
2023-12-08T16:02:40.698Z,31.23
2023-12-08T16:05:07.618Z,22.75
2023-12-08T16:07:34.604Z,25.45
2023-12-08T16:10:01.094Z,23.42
2023-12-08T16:12:28.202Z,22.55
2023-12-08T16:14:55.026Z,26.30
2023-12-08T16:17:21.744Z,23.13
2023-12-08T16:19:48.540Z,22.90
2023-12-08T16:22:16.138Z,24.45
2023-12-08T16:24:47.679Z,25.70
2023-12-08T16:27:14.580Z,23.65
2023-12-08T16:29:45.451Z,23.15
2023-12-08T16:32:13.022Z,24.65
2023-12-08T16:34:39.658Z,27.08
2023-12-08T16:37:06.321Z,25.42
2023-12-08T16:39:33.550Z,32.03
2023-12-08T16:42:00.101Z,26.48
2023-12-08T16:44:26.601Z,24.10
2023-12-08T16:46:53.525Z,27.63
2023-12-08T16:49:20.180Z,24.75
2023-12-08T16:51:46.714Z,25.92
2023-12-08T16:54:13.249Z,27.80
2023-12-08T16:56:39.763Z,26.15
2023-12-08T16:59:06.214Z,26.90
2023-12-08T17:01:34.295Z,30.40
2023-12-08T17:04:01.251Z,24.42
2023-12-08T17:06:28.243Z,26.33
2023-12-08T17:08:55.056Z,29.52
2023-12-08T17:11:21.687Z,29.80
2023-12-08T17:13:48.220Z,28.00
2023-12-08T17:16:14.894Z,25.27
2023-12-08T17:18:42.064Z,26.27
2023-12-08T17:21:08.851Z,27.45
2023-12-08T17:23:35.422Z,25.00
2023-12-08T17:26:01.863Z,26.65
2023-12-08T17:28:28.328Z,25.65
2023-12-08T17:30:54.911Z,26.00
2023-12-08T17:33:21.631Z,26.70
2023-12-08T17:35:48.353Z,27.92
2023-12-08T17:38:17.037Z,26.40
2023-12-08T17:40:44.307Z,28.80
2023-12-08T17:43:11.877Z,29.02
2023-12-08T17:45:39.031Z,27.40
2023-12-08T17:48:08.821Z,27.92
2023-12-08T17:50:35.636Z,30.15
2023-12-08T17:53:02.096Z,27.30
2023-12-08T17:55:28.943Z,28.83
2023-12-08T17:57:55.476Z,29.48
2023-12-08T18:00:22.098Z,34.50
2023-12-08T18:02:56.046Z,29.00
2023-12-08T18:05:22.938Z,28.63
2023-12-08T18:07:49.472Z,31.40
2023-12-08T18:10:16.125Z,29.77
2023-12-08T18:12:42.673Z,29.08
2023-12-08T18:15:09.929Z,32.95
2023-12-08T18:17:37.159Z,28.45
2023-12-08T18:20:04.603Z,28.30
2023-12-08T18:22:32.863Z,30.15
2023-12-08T18:24:59.450Z,30.90
2023-12-08T18:27:38.059Z,36.72
2023-12-08T18:30:14.027Z,32.95
2023-12-08T18:32:41.780Z,30.77
2023-12-08T18:35:08.775Z,34.38
2023-12-08T18:37:35.272Z,36.05
2023-12-08T18:40:02.074Z,35.72
2023-12-08T18:42:28.953Z,36.15
2023-12-08T18:44:55.731Z,33.58
2023-12-08T18:47:23.316Z,32.60
2023-12-08T18:49:50.066Z,36.03
2023-12-08T18:52:16.878Z,32.55
2023-12-08T18:54:43.527Z,35.25
2023-12-08T18:57:10.134Z,42.70
2023-12-08T18:59:39.185Z,54.47
2023-12-08T19:02:06.548Z,53.25
2023-12-08T19:04:34.692Z,55.22
2023-12-08T19:07:04.862Z,54.88
2023-12-08T19:09:31.516Z,41.40
2023-12-08T19:11:59.438Z,37.67
2023-12-08T19:14:27.588Z,38.58
2023-12-08T19:16:54.234Z,36.65
2023-12-08T19:19:22.242Z,33.97
2023-12-08T19:21:48.914Z,35.92
2023-12-08T19:24:15.514Z,42.72
2023-12-08T19:26:42.072Z,38.15
2023-12-08T19:29:08.715Z,36.42
2023-12-08T19:31:35.747Z,37.85
2023-12-08T19:34:02.440Z,34.22
2023-12-08T19:36:29.083Z,34.50
2023-12-08T19:39:00.463Z,39.13
2023-12-08T19:41:28.003Z,35.88
2023-12-08T19:43:55.843Z,35.92
2023-12-08T19:46:22.650Z,36.63
2023-12-08T19:48:49.373Z,30.27
2023-12-08T19:51:16.142Z,38.55
2023-12-08T19:53:42.897Z,31.70
2023-12-08T19:56:10.042Z,34.40
2023-12-08T19:58:36.676Z,35.22
2023-12-08T20:01:03.570Z,40.22
2023-12-08T20:03:30.265Z,40.25
2023-12-08T20:05:57.090Z,43.45
2023-12-08T20:08:23.664Z,46.15
2023-12-08T20:10:50.178Z,43.33
2023-12-08T20:13:16.719Z,45.00
2023-12-08T20:15:45.687Z,49.13
2023-12-08T20:18:12.761Z,40.45
2023-12-08T20:20:39.963Z,37.00
2023-12-08T20:23:06.882Z,39.45
2023-12-08T20:25:33.456Z,35.72
2023-12-08T20:27:59.968Z,39.72
2023-12-08T20:30:26.961Z,37.38
2023-12-08T20:32:56.879Z,38.10
2023-12-08T20:35:23.654Z,33.08
2023-12-08T20:37:52.812Z,33.83
2023-12-08T20:40:19.509Z,35.00
2023-12-08T20:42:45.972Z,34.65
2023-12-08T20:45:12.790Z,33.60
2023-12-08T20:47:39.550Z,36.50
2023-12-08T20:50:06.686Z,33.97
2023-12-08T20:52:33.208Z,31.58
2023-12-08T20:54:59.868Z,41.47
2023-12-08T20:57:26.986Z,37.42
2023-12-08T20:59:53.796Z,38.08
2023-12-08T21:02:22.101Z,41.97
2023-12-08T21:04:49.246Z,35.20
2023-12-08T21:07:16.202Z,35.88
2023-12-08T21:09:42.946Z,39.85
2023-12-08T21:12:09.492Z,32.70
2023-12-08T21:14:36.125Z,33.08
2023-12-08T21:17:03.330Z,39.28
2023-12-08T21:19:31.660Z,33.95
2023-12-08T21:22:02.175Z,34.22
2023-12-08T21:24:29.032Z,31.90
2023-12-08T21:26:55.599Z,31.25
2023-12-08T21:29:22.249Z,34.83
2023-12-08T21:31:51.640Z,38.10
2023-12-08T21:34:18.428Z,35.20
2023-12-08T21:36:45.000Z,31.95
2023-12-08T21:39:11.584Z,30.88
2023-12-08T21:41:38.346Z,36.60
2023-12-08T21:44:07.804Z,33.75
2023-12-08T21:46:34.829Z,31.90
2023-12-08T21:49:01.762Z,34.83
2023-12-08T21:51:30.842Z,35.45
2023-12-08T21:53:58.755Z,32.70
2023-12-08T21:56:29.884Z,34.50
2023-12-08T21:58:59.966Z,35.42
2023-12-08T22:01:27.249Z,29.10
2023-12-08T22:03:57.303Z,31.55
2023-12-08T22:06:24.335Z,33.53
2023-12-08T22:08:51.873Z,31.88
2023-12-08T22:11:18.967Z,25.52
2023-12-08T22:13:46.724Z,27.92
2023-12-08T22:16:13.250Z,35.55
2023-12-08T22:18:41.720Z,33.83
2023-12-08T22:21:09.859Z,29.45
2023-12-08T22:23:38.339Z,32.10
2023-12-08T22:26:05.123Z,30.55
2023-12-08T22:28:31.794Z,31.55
2023-12-08T22:30:58.621Z,30.90
2023-12-08T22:33:25.504Z,33.72
2023-12-08T22:35:53.276Z,33.13
2023-12-08T22:38:20.246Z,31.20
2023-12-08T22:40:46.989Z,30.75
2023-12-08T22:43:13.475Z,28.10
2023-12-08T22:45:40.560Z,27.98
2023-12-08T22:48:07.285Z,24.85
2023-12-08T22:50:43.094Z,35.47
2023-12-08T22:53:13.466Z,26.97
2023-12-08T22:55:40.478Z,27.77
2023-12-08T22:58:07.047Z,28.48
2023-12-08T23:00:33.695Z,31.88
2023-12-08T23:03:00.431Z,28.25
2023-12-08T23:05:26.994Z,25.75
2023-12-08T23:07:53.744Z,29.00
2023-12-08T23:10:20.523Z,23.33
2023-12-08T23:12:47.717Z,25.75
2023-12-08T23:15:14.469Z,24.33
2023-12-08T23:17:41.337Z,25.33
2023-12-08T23:20:12.398Z,24.75
2023-12-08T23:22:39.060Z,23.58
2023-12-08T23:25:06.660Z,22.65
2023-12-08T23:27:33.389Z,30.42
2023-12-08T23:30:00.150Z,26.00
2023-12-08T23:32:28.475Z,25.58
2023-12-08T23:34:55.314Z,22.95
2023-12-08T23:37:22.629Z,23.35
2023-12-08T23:39:49.265Z,27.95
2023-12-08T23:42:15.833Z,25.30
2023-12-08T23:44:42.373Z,20.25
2023-12-08T23:47:09.356Z,24.95
2023-12-08T23:49:35.839Z,23.35
2023-12-08T23:52:02.337Z,21.17
2023-12-08T23:54:28.976Z,20.70
2023-12-08T23:56:55.654Z,23.10
2023-12-08T23:59:22.175Z,23.25
